Time;durP1;ratioP1;P1;durP2;ratioP2;P2;SDS_P1;SDS_P2;PMS_P1;PMS_P2;Temp;Humidity;BMP_temperature;BMP_pressure;BME280_temperature;BME280_humidity;BME280_pressure;Samples;Min_cycle;Max_cycle;Signal;HPM_P1;HPM_P2
2021/10/07 00:01:23;;;;;;;5.23;2.90;;;;;;;12.19;87.25;101733.88;5019187;28;20195;-71
2021/10/07 00:03:49;;;;;;;5.77;3.40;;;;;;;12.15;87.42;101739.44;5035795;28;20171;-71
2021/10/07 00:06:14;;;;;;;5.20;3.33;;;;;;;12.13;87.69;101744.88;5052916;28;20195;-71
2021/10/07 00:08:40;;;;;;;7.37;3.70;;;;;;;12.10;88.10;101750.38;5019218;28;20175;-71
2021/10/07 00:11:05;;;;;;;7.40;4.13;;;;;;;12.11;89.04;101754.78;5053653;28;20238;-71
2021/10/07 00:13:30;;;;;;;7.20;4.80;;;;;;;12.16;89.35;101760.78;5053558;28;20545;-71
2021/10/07 00:15:56;;;;;;;11.27;4.23;;;;;;;12.14;89.76;101767.16;5053691;28;20582;-71
2021/10/07 00:18:22;;;;;;;6.10;4.17;;;;;;;12.15;89.59;101759.03;5053737;28;20176;-72
2021/10/07 00:20:48;;;;;;;7.43;5.00;;;;;;;12.12;89.20;101772.56;5035669;28;20194;-70
2021/10/07 00:23:17;;;;;;;5.40;4.20;;;;;;;12.10;89.13;101770.91;5035895;28;20175;-70
2021/10/07 00:25:42;;;;;;;8.47;4.30;;;;;;;12.06;88.68;101767.50;5036966;28;20608;-70
2021/10/07 00:28:09;;;;;;;7.70;4.10;;;;;;;12.03;89.30;101770.31;5036042;28;20264;-70
2021/10/07 00:30:36;;;;;;;7.47;4.50;;;;;;;12.03;89.27;101767.63;5036012;28;20663;-70
2021/10/07 00:35:42;;;;;;;7.13;4.10;;;;;;;12.01;89.37;101768.63;5035959;28;20647;-70
2021/10/07 00:40:52;;;;;;;5.37;4.10;;;;;;;11.92;89.17;101775.28;5053423;28;20198;-72
2021/10/07 00:43:17;;;;;;;5.00;3.90;;;;;;;11.91;89.01;101765.50;5018709;28;20183;-71
2021/10/07 00:45:49;;;;;;;6.90;4.20;;;;;;;11.90;89.55;101774.47;5018426;28;20247;-71
2021/10/07 00:48:14;;;;;;;5.60;3.93;;;;;;;11.83;90.37;101783.66;5035204;28;20164;-71
2021/10/07 00:50:39;;;;;;;4.07;3.63;;;;;;;11.78;90.26;101780.31;5053351;28;20183;-71
2021/10/07 00:53:05;;;;;;;3.87;3.47;;;;;;;11.78;90.04;101781.19;5035729;28;20674;-71
2021/10/07 00:55:30;;;;;;;5.50;3.33;;;;;;;11.74;89.99;101781.34;5035146;28;20640;-71
2021/10/07 00:57:55;;;;;;;7.13;3.73;;;;;;;11.70;89.69;101782.44;5035091;28;20275;-71
2021/10/07 01:00:21;;;;;;;10.60;4.10;;;;;;;11.69;90.30;101797.59;5035057;28;20228;-71
2021/10/07 01:02:46;;;;;;;7.70;4.50;;;;;;;11.66;89.83;101796.88;5035044;28;20223;-71
2021/10/07 01:05:11;;;;;;;8.03;4.20;;;;;;;11.62;90.08;101795.25;5052847;28;20179;-71
2021/10/07 01:07:37;;;;;;;8.80;4.67;;;;;;;11.62;89.70;101801.47;5035093;28;20174;-71
2021/10/07 01:10:04;;;;;;;4.90;4.40;;;;;;;11.60;90.07;101803.34;5035254;28;20175;-71
2021/10/07 01:12:29;;;;;;;6.03;4.73;;;;;;;11.58;89.92;101799.88;5018284;28;20233;-71
2021/10/07 01:14:56;;;;;;;5.20;4.70;;;;;;;11.56;89.16;101804.41;5052867;28;20175;-71
2021/10/07 01:17:24;;;;;;;6.17;3.70;;;;;;;11.64;89.24;101804.09;5036787;28;20236;-71
2021/10/07 01:19:52;;;;;;;9.50;4.70;;;;;;;11.64;89.52;101810.31;5056768;28;20201;-70
2021/10/07 01:22:19;;;;;;;6.73;4.03;;;;;;;11.63;89.23;101807.69;5022277;28;20211;-71
2021/10/07 01:24:44;;;;;;;7.57;4.17;;;;;;;11.62;89.98;101812.16;5038717;28;20174;-71
2021/10/07 01:27:10;;;;;;;7.63;3.70;;;;;;;11.57;89.66;101817.72;5022073;28;20275;-71
2021/10/07 01:29:36;;;;;;;6.00;4.07;;;;;;;11.61;89.75;101821.13;5056600;28;20178;-71
2021/10/07 01:32:02;;;;;;;7.63;4.07;;;;;;;11.60;89.48;101822.06;5038665;28;20555;-71
2021/10/07 01:34:29;;;;;;;10.60;3.93;;;;;;;11.62;89.29;101822.00;5056384;28;20241;-71
2021/10/07 01:36:55;;;;;;;6.50;3.90;;;;;;;11.62;89.46;101824.69;5038545;28;20177;-71
2021/10/07 01:39:21;;;;;;;7.03;3.60;;;;;;;11.58;89.10;101822.13;5038643;28;20218;-71
2021/10/07 01:41:46;;;;;;;6.37;4.00;;;;;;;11.59;89.08;101818.53;5038647;28;20198;-70
2021/10/07 01:44:13;;;;;;;7.37;3.93;;;;;;;11.56;88.83;101824.00;5056323;28;20602;-70
2021/10/07 01:46:39;;;;;;;6.83;4.13;;;;;;;11.53;88.81;101834.81;5038281;28;20668;-71
2021/10/07 01:49:06;;;;;;;5.13;4.07;;;;;;;11.54;89.74;101833.88;5056790;28;20189;-71
2021/10/07 01:51:32;;;;;;;5.40;3.57;;;;;;;11.52;88.80;101834.84;5039066;28;20203;-71
2021/10/07 01:53:57;;;;;;;5.30;3.67;;;;;;;11.54;88.31;101836.56;5057491;28;20178;-71
2021/10/07 01:56:22;;;;;;;9.80;3.20;;;;;;;11.49;88.80;101827.84;5040056;28;20525;-71
2021/10/07 01:58:48;;;;;;;5.03;3.27;;;;;;;11.48;88.55;101835.91;5056917;28;20174;-71
2021/10/07 02:01:13;;;;;;;6.30;3.73;;;;;;;11.44;88.87;101828.97;5039168;28;20201;-71
2021/10/07 02:03:38;;;;;;;4.17;3.60;;;;;;;11.43;89.03;101844.13;5039752;28;20572;-71
2021/10/07 02:06:04;;;;;;;4.50;3.60;;;;;;;11.45;88.30;101847.59;5037808;28;20694;-71
2021/10/07 02:08:29;;;;;;;5.03;3.90;;;;;;;11.46;88.37;101841.31;5055987;28;20172;-71
2021/10/07 02:10:54;;;;;;;4.70;3.60;;;;;;;11.44;88.09;101839.66;5038343;28;20216;-71
2021/10/07 02:13:19;;;;;;;5.80;4.10;;;;;;;11.40;88.88;101846.94;5038006;28;20174;-71
2021/10/07 02:15:45;;;;;;;5.57;3.97;;;;;;;11.42;88.93;101854.88;5056149;28;20181;-71
2021/10/07 02:18:10;;;;;;;14.37;4.37;;;;;;;11.43;88.44;101859.28;5037844;28;20575;-71
2021/10/07 02:20:37;;;;;;;10.30;4.60;;;;;;;11.41;88.35;101861.16;5020936;28;20670;-71
2021/10/07 02:23:03;;;;;;;7.93;5.00;;;;;;;11.41;88.81;101871.84;5021137;28;20170;-71
2021/10/07 02:25:28;;;;;;;11.57;4.90;;;;;;;11.42;88.50;101868.25;5021295;28;20228;-70
2021/10/07 02:27:53;;;;;;;6.20;3.97;;;;;;;11.36;87.78;101863.16;5055329;28;20696;-70
2021/10/07 02:30:19;;;;;;;9.20;4.00;;;;;;;11.25;87.87;101866.25;5021217;28;20522;-70
2021/10/07 02:32:44;;;;;;;8.77;4.23;;;;;;;11.12;87.34;101857.81;5055341;28;20286;-70
2021/10/07 02:35:10;;;;;;;9.97;3.83;;;;;;;11.01;86.37;101859.19;5020931;28;20206;-70
2021/10/07 02:37:35;;;;;;;11.53;3.30;;;;;;;10.85;86.68;101858.91;5037362;28;20229;-70
2021/10/07 02:40:01;;;;;;;4.70;2.80;;;;;;;10.73;86.27;101862.00;5055550;28;20186;-70
2021/10/07 02:42:26;;;;;;;5.43;3.20;;;;;;;10.76;86.96;101868.09;5037636;28;20192;-70
2021/10/07 02:44:51;;;;;;;5.37;3.43;;;;;;;10.81;87.00;101875.97;5037296;28;20191;-71
2021/10/07 02:47:17;;;;;;;5.93;4.13;;;;;;;10.86;87.93;101882.00;5037110;28;20187;-70
2021/10/07 02:49:42;;;;;;;4.70;3.90;;;;;;;10.88;87.38;101882.81;5037311;28;20601;-71
2021/10/07 02:52:07;;;;;;;7.97;4.57;;;;;;;10.90;87.89;101886.31;5037205;28;20561;-70
2021/10/07 02:54:33;;;;;;;4.97;3.57;;;;;;;10.70;88.12;101887.03;5054761;28;20174;-70
2021/10/07 02:56:58;;;;;;;7.60;3.97;;;;;;;10.72;87.00;101893.19;5054787;28;20187;-71
2021/10/07 02:59:23;;;;;;;5.30;4.13;;;;;;;10.76;87.65;101893.94;5036789;28;20187;-70
2021/10/07 03:01:48;;;;;;;5.87;3.17;;;;;;;10.72;86.97;101893.19;5054856;28;20545;-70
2021/10/07 03:04:15;;;;;;;8.63;2.93;;;;;;;10.54;85.84;101891.19;5054964;28;20205;-71
2021/10/07 03:06:40;;;;;;;5.53;2.63;;;;;;;10.49;86.35;101901.19;5054725;28;20648;-70
2021/10/07 03:09:06;;;;;;;3.97;2.67;;;;;;;10.45;87.14;101902.22;5036850;28;20178;-70
2021/10/07 03:11:31;;;;;;;6.23;2.90;;;;;;;10.42;87.04;101897.84;5054605;28;20199;-71
2021/10/07 03:13:56;;;;;;;3.70;2.83;;;;;;;10.24;86.97;101902.03;5054512;28;20175;-71
2021/10/07 03:16:22;;;;;;;3.40;2.43;;;;;;;10.28;87.05;101905.44;5036724;28;20179;-71
2021/10/07 03:18:47;;;;;;;5.97;2.70;;;;;;;10.30;87.29;101904.47;5036844;28;20168;-70
2021/10/07 03:21:12;;;;;;;3.00;2.50;;;;;;;10.30;86.84;101901.81;5054466;28;20281;-70
2021/10/07 03:23:37;;;;;;;3.57;2.57;;;;;;;10.31;86.62;101911.56;5036615;28;20160;-70
2021/10/07 03:26:03;;;;;;;10.13;3.30;;;;;;;10.29;86.62;101913.41;5036851;28;20192;-70
2021/10/07 03:28:28;;;;;;;6.23;2.97;;;;;;;10.23;86.02;101915.41;5019791;28;20176;-70
2021/10/07 03:30:53;;;;;;;4.63;2.70;;;;;;;10.11;85.06;101914.00;5036256;28;20207;-71
2021/10/07 03:33:19;;;;;;;2.57;2.00;;;;;;;10.06;85.28;101909.75;5054069;28;20206;-71
2021/10/07 03:35:44;;;;;;;6.73;2.20;;;;;;;9.98;85.13;101913.53;5036369;28;20176;-70
2021/10/07 03:38:09;;;;;;;5.13;2.50;;;;;;;9.97;85.33;101906.47;5054131;28;20202;-71
2021/10/07 03:40:35;;;;;;;4.87;3.30;;;;;;;9.98;85.79;101920.66;5035332;28;20194;-71
2021/10/07 03:43:00;;;;;;;6.10;3.37;;;;;;;9.99;86.49;101931.28;5054182;28;20172;-71
2021/10/07 03:45:25;;;;;;;8.37;3.10;;;;;;;10.02;86.25;101933.84;5035969;28;20194;-72
2021/10/07 03:47:51;;;;;;;5.57;3.67;;;;;;;10.02;87.28;101939.19;5035922;28;20198;-71
2021/10/07 03:50:16;;;;;;;8.37;3.80;;;;;;;10.01;86.52;101944.56;5053813;28;20167;-72
2021/10/07 03:52:42;;;;;;;2.57;2.37;;;;;;;9.90;87.19;101952.06;5035926;28;20318;-72
2021/10/07 03:55:07;;;;;;;3.07;2.50;;;;;;;9.84;87.24;101946.91;5053693;28;20175;-71
2021/10/07 03:57:33;;;;;;;2.10;1.90;;;;;;;9.85;88.13;101956.66;5035907;28;20168;-71
2021/10/07 03:59:58;;;;;;;2.87;2.53;;;;;;;9.83;87.98;101958.50;5035777;28;20710;-71
2021/10/07 04:02:23;;;;;;;1.97;1.67;;;;;;;9.81;87.25;101955.03;5035872;28;20226;-70
2021/10/07 04:04:49;;;;;;;2.30;2.10;;;;;;;9.75;86.76;101950.75;5053511;28;20167;-71
2021/10/07 04:07:14;;;;;;;2.70;2.33;;;;;;;9.77;87.20;101959.59;5035781;28;20191;-71
2021/10/07 04:09:40;;;;;;;3.17;2.87;;;;;;;9.77;87.50;101959.59;5035994;28;20175;-71
2021/10/07 04:12:06;;;;;;;5.70;2.90;;;;;;;9.86;86.96;101963.75;5053506;28;20573;-70
2021/10/07 04:14:31;;;;;;;8.83;3.60;;;;;;;9.88;87.81;101957.44;5035505;28;20324;-71
2021/10/07 04:16:57;;;;;;;6.67;3.90;;;;;;;9.90;88.29;101962.72;5035605;28;20167;-71
2021/10/07 04:19:22;;;;;;;6.23;4.53;;;;;;;10.05;89.00;101972.91;5053267;28;20176;-71
2021/10/07 04:21:48;;;;;;;8.03;4.93;;;;;;;10.09;89.10;101966.56;5053006;28;20718;-71
2021/10/07 04:24:13;;;;;;;7.63;4.13;;;;;;;10.11;89.49;101978.03;5035762;28;20326;-70
2021/10/07 04:26:38;;;;;;;4.13;3.70;;;;;;;10.14;89.63;101977.06;5035360;28;20191;-71
2021/10/07 04:29:04;;;;;;;3.97;3.57;;;;;;;10.11;90.10;101985.16;5053212;28;20669;-70
2021/10/07 04:31:30;;;;;;;4.60;4.07;;;;;;;10.18;89.20;101984.91;5053072;28;20195;-70
2021/10/07 04:33:55;;;;;;;3.87;3.43;;;;;;;10.18;88.73;101987.56;5035358;28;20180;-70
2021/10/07 04:36:21;;;;;;;3.60;2.97;;;;;;;10.12;88.80;101987.78;5035304;28;20227;-70
2021/10/07 04:38:46;;;;;;;8.77;7.30;;;;;;;10.20;91.33;102003.53;5035280;28;20171;-70
2021/10/07 04:41:11;;;;;;;12.83;8.53;;;;;;;10.23;92.91;102011.47;5035040;28;20188;-70
2021/10/07 04:43:38;;;;;;;11.47;8.73;;;;;;;10.37;92.95;102014.53;5035221;28;20171;-70
2021/10/07 04:46:03;;;;;;;13.93;8.67;;;;;;;10.54;92.50;102017.53;5034950;28;20200;-71
2021/10/07 04:48:29;;;;;;;9.70;7.17;;;;;;;10.51;94.40;102027.44;5035095;28;20175;-71
2021/10/07 04:50:54;;;;;;;14.57;7.10;;;;;;;10.62;93.32;102031.50;5052575;28;20257;-71
2021/10/07 04:53:19;;;;;;;11.50;7.23;;;;;;;10.65;94.06;102030.50;5034876;28;20176;-71
2021/10/07 04:55:45;;;;;;;13.47;6.77;;;;;;;10.80;93.58;102039.81;5034907;28;20213;-71
2021/10/07 04:58:10;;;;;;;9.27;6.57;;;;;;;10.88;93.23;102041.28;5018428;28;20272;-71
2021/10/07 05:00:35;;;;;;;19.40;7.70;;;;;;;10.89;93.96;102047.50;5034737;28;20227;-71
2021/10/07 05:03:01;;;;;;;11.30;7.37;;;;;;;11.02;92.99;102050.59;5052664;28;20176;-71
2021/10/07 05:05:26;;;;;;;12.80;6.47;;;;;;;11.16;92.64;102048.31;5018175;28;20251;-71
2021/10/07 05:07:51;;;;;;;10.57;7.03;;;;;;;11.11;92.08;102042.25;5035070;28;20191;-71
2021/10/07 05:10:17;;;;;;;12.63;6.97;;;;;;;11.10;92.04;102049.38;5034815;28;20198;-71
2021/10/07 05:12:42;;;;;;;12.90;7.10;;;;;;;11.15;92.29;102049.22;5034757;28;20212;-70
2021/10/07 05:15:08;;;;;;;8.93;7.33;;;;;;;11.19;90.09;102046.41;5034723;28;20189;-71
2021/10/07 05:17:34;;;;;;;14.10;7.03;;;;;;;11.06;89.15;102042.41;5034640;28;20208;-71
2021/10/07 05:19:59;;;;;;;9.50;6.10;;;;;;;10.95;89.11;102052.63;5035107;28;20553;-69
2021/10/07 05:22:24;;;;;;;10.73;6.27;;;;;;;10.92;88.92;102050.06;5053827;28;20203;-71
2021/10/07 05:24:50;;;;;;;8.97;6.60;;;;;;;10.89;88.11;102051.03;5035186;28;20221;-70
2021/10/07 05:27:15;;;;;;;13.10;6.03;;;;;;;10.86;88.67;102056.50;5052252;28;20196;-70
2021/10/07 05:29:40;;;;;;;8.87;6.10;;;;;;;10.82;88.34;102065.53;5035240;28;20177;-69
2021/10/07 05:32:06;;;;;;;9.93;5.90;;;;;;;10.79;88.18;102068.31;5035156;28;20201;-70
2021/10/07 05:34:31;;;;;;;10.20;5.83;;;;;;;10.82;88.54;102070.00;5052435;28;20233;-69
2021/10/07 05:36:56;;;;;;;9.70;6.40;;;;;;;10.80;88.49;102071.84;5052585;28;20170;-69
2021/10/07 05:39:22;;;;;;;9.03;6.53;;;;;;;10.83;87.94;102077.97;5052252;28;20167;-69
2021/10/07 05:41:47;;;;;;;7.37;5.47;;;;;;;10.90;88.83;102089.31;5034449;28;20195;-68
2021/10/07 05:44:12;;;;;;;9.20;5.10;;;;;;;10.90;88.05;102083.97;5052396;28;20174;-69
2021/10/07 05:46:38;;;;;;;5.80;3.40;;;;;;;10.30;82.83;102059.25;5034631;28;20289;-68
2021/10/07 05:49:04;;;;;;;3.77;2.97;;;;;;;10.06;84.70;102064.47;5034567;28;20213;-68
2021/10/07 05:51:29;;;;;;;7.80;4.40;;;;;;;10.12;86.47;102062.47;5034560;28;20192;-69
2021/10/07 05:53:54;;;;;;;5.83;4.33;;;;;;;10.31;86.14;102079.66;5017897;28;20597;-69
2021/10/07 05:56:20;;;;;;;9.93;3.97;;;;;;;10.45;86.25;102084.59;5052417;28;20193;-69
2021/10/07 05:58:45;;;;;;;7.73;4.13;;;;;;;10.56;85.75;102084.22;5052325;28;20171;-70
2021/10/07 06:01:11;;;;;;;5.00;4.07;;;;;;;10.57;85.94;102086.84;5052068;28;20202;-69
2021/10/07 06:03:36;;;;;;;7.73;5.00;;;;;;;10.59;86.03;102082.31;5036271;28;20266;-70
2021/10/07 06:06:01;;;;;;;10.40;6.67;;;;;;;10.62;86.08;102090.22;5038420;28;20556;-69
2021/10/07 06:08:27;;;;;;;11.53;6.50;;;;;;;10.76;86.52;102097.75;5021609;28;20172;-69
2021/10/07 06:10:52;;;;;;;10.73;6.13;;;;;;;10.90;86.26;102103.53;5038385;28;20603;-69
2021/10/07 06:13:17;;;;;;;15.13;8.50;;;;;;;10.96;86.66;102100.66;5037955;28;20567;-68
2021/10/07 06:15:43;;;;;;;19.30;9.67;;;;;;;10.95;84.87;102098.91;5038047;28;20207;-69
2021/10/07 06:18:08;;;;;;;20.67;10.23;;;;;;;10.95;84.95;102098.91;5037790;28;20172;-69
2021/10/07 06:20:34;;;;;;;11.13;7.40;;;;;;;10.90;84.49;102095.53;5038000;28;20184;-69
2021/10/07 06:23:04;;;;;;;12.20;6.77;;;;;;;10.98;84.71;102102.38;5055610;28;20155;-70
2021/10/07 06:25:30;;;;;;;9.57;5.43;;;;;;;10.95;84.77;102109.59;5037746;28;20195;-69
2021/10/07 06:27:55;;;;;;;10.30;5.80;;;;;;;10.93;86.37;102116.78;5037415;28;20641;-69
2021/10/07 06:30:21;;;;;;;9.73;6.53;;;;;;;11.29;86.18;102129.78;5037876;28;20184;-69
2021/10/07 06:32:47;;;;;;;13.03;6.97;;;;;;;11.42;85.77;102128.41;5037281;28;20190;-69
2021/10/07 06:35:12;;;;;;;10.53;6.73;;;;;;;11.54;85.34;102132.47;5037452;28;20194;-69
2021/10/07 06:37:38;;;;;;;14.33;6.70;;;;;;;11.62;85.10;102132.19;5037023;28;20222;-69
2021/10/07 06:40:04;;;;;;;12.10;6.60;;;;;;;11.65;84.89;102130.28;5055049;28;20243;-70
2021/10/07 06:42:29;;;;;;;14.63;6.43;;;;;;;11.73;85.07;102136.19;5037399;28;20235;-69
2021/10/07 06:44:54;;;;;;;10.07;6.07;;;;;;;11.69;84.84;102129.22;5055031;28;20174;-70
2021/10/07 06:47:20;;;;;;;13.50;5.63;;;;;;;11.69;84.21;102133.69;5055029;28;20758;-70
2021/10/07 06:49:45;;;;;;;10.50;5.80;;;;;;;11.67;83.62;102131.09;5054754;28;20185;-69
2021/10/07 06:52:10;;;;;;;13.03;5.63;;;;;;;11.72;83.07;102134.47;5055324;28;20203;-70
2021/10/07 06:54:36;;;;;;;13.40;5.80;;;;;;;11.72;83.01;102145.16;5037501;28;20236;-70
2021/10/07 06:57:01;;;;;;;8.87;5.53;;;;;;;11.89;83.66;102149.91;5054999;28;20171;-70
2021/10/07 06:59:26;;;;;;;15.10;6.43;;;;;;;12.06;83.87;102146.59;5055114;28;20174;-71
2021/10/07 07:01:51;;;;;;;11.57;6.27;;;;;;;12.12;82.46;102152.59;5054796;28;20195;-71
2021/10/07 07:04:17;;;;;;;16.23;5.93;;;;;;;12.28;83.15;102157.38;5054707;28;20177;-71
2021/10/07 07:06:45;;;;;;;10.23;5.60;;;;;;;12.45;83.01;102165.59;5054998;28;20672;-68
2021/10/07 07:09:11;;;;;;;11.80;6.37;;;;;;;12.57;83.56;102166.91;5054623;28;20182;-70
2021/10/07 07:11:37;;;;;;;9.00;5.73;;;;;;;12.38;82.58;102159.63;5036423;28;20202;-70
2021/10/07 07:14:03;;;;;;;7.27;5.17;;;;;;;12.47;82.31;102155.69;5054571;28;20171;-69
2021/10/07 07:16:29;;;;;;;7.23;5.03;;;;;;;12.72;83.11;102164.50;5037509;28;20175;-69
2021/10/07 07:18:54;;;;;;;7.50;5.30;;;;;;;12.87;83.13;102165.66;5038480;28;20188;-72
2021/10/07 07:21:22;;;;;;;9.83;6.20;;;;;;;13.03;82.80;102168.59;5054235;28;20293;-70
2021/10/07 07:23:49;;;;;;;9.87;5.77;;;;;;;13.10;81.28;102168.25;5054443;28;20185;-69
2021/10/07 07:26:14;;;;;;;12.23;6.03;;;;;;;13.11;81.88;102169.13;5036339;28;20275;-69
2021/10/07 07:28:39;;;;;;;9.37;5.87;;;;;;;13.20;81.89;102168.75;5036241;28;20213;-70
2021/10/07 07:31:05;;;;;;;10.50;5.50;;;;;;;13.41;81.77;102175.03;5054245;28;20200;-70
2021/10/07 07:33:30;;;;;;;10.00;5.60;;;;;;;13.51;81.20;102173.69;5054155;28;20711;-69
2021/10/07 07:35:55;;;;;;;9.13;5.77;;;;;;;13.43;80.12;102170.47;5053938;28;20320;-70
2021/10/07 07:38:21;;;;;;;12.13;6.03;;;;;;;13.39;81.15;102169.72;5053867;28;20175;-70
2021/10/07 07:40:46;;;;;;;11.13;6.97;;;;;;;13.39;81.41;102179.59;5035927;28;20202;-70
2021/10/07 07:43:18;;;;;;;9.93;6.23;;;;;;;13.52;81.52;102177.22;5036426;28;20222;-69
2021/10/07 07:45:44;;;;;;;12.23;7.30;;;;;;;13.68;80.69;102189.00;5037053;28;20206;-70
2021/10/07 07:48:10;;;;;;;11.40;6.37;;;;;;;13.87;80.88;102192.63;5053783;28;20182;-69
2021/10/07 07:50:35;;;;;;;12.80;6.83;;;;;;;14.01;81.25;102200.03;5053955;28;20179;-69
2021/10/07 07:53:00;;;;;;;9.97;6.17;;;;;;;14.12;79.56;102194.19;5053941;28;20179;-69
2021/10/07 07:55:26;;;;;;;9.00;6.07;;;;;;;14.15;78.89;102194.94;5053594;28;20168;-69
2021/10/07 07:57:51;;;;;;;10.07;5.90;;;;;;;14.30;79.14;102199.56;5053613;28;20168;-69
2021/10/07 08:00:17;;;;;;;10.90;5.67;;;;;;;14.33;77.82;102195.88;5054014;28;20621;-69
2021/10/07 08:02:42;;;;;;;12.67;6.23;;;;;;;14.41;77.59;102201.75;5053377;28;20568;-69
2021/10/07 08:05:08;;;;;;;12.23;6.17;;;;;;;14.04;78.64;102195.41;5053763;28;20171;-69
2021/10/07 08:07:33;;;;;;;11.93;7.00;;;;;;;13.71;79.59;102196.91;5054110;28;20208;-69
2021/10/07 08:09:58;;;;;;;10.40;5.90;;;;;;;14.06;78.45;102198.03;5054358;28;20179;-71
2021/10/07 08:12:24;;;;;;;11.43;5.70;;;;;;;14.24;77.94;102207.06;5037606;28;20205;-70
2021/10/07 08:14:49;;;;;;;14.17;5.87;;;;;;;14.51;77.42;102207.63;5054954;28;20215;-70
2021/10/07 08:17:15;;;;;;;15.57;6.20;;;;;;;14.36;77.56;102212.72;5035675;28;20167;-69
2021/10/07 08:19:42;;;;;;;15.07;5.93;;;;;;;14.46;77.54;102213.19;5053745;28;20183;-69
2021/10/07 08:22:08;;;;;;;10.50;5.93;;;;;;;14.84;77.46;102218.53;5052951;28;20294;-69
2021/10/07 08:24:33;;;;;;;10.80;5.80;;;;;;;14.93;76.90;102216.28;5053064;28;20203;-69
2021/10/07 08:27:00;;;;;;;12.97;5.30;;;;;;;15.06;77.05;102229.97;5052696;28;20219;-70
2021/10/07 08:29:25;;;;;;;15.03;5.53;;;;;;;15.14;76.13;102229.59;5053347;28;20168;-69
2021/10/07 08:31:50;;;;;;;9.47;5.60;;;;;;;15.39;75.58;102229.25;5035198;28;20198;-69
2021/10/07 08:34:16;;;;;;;16.07;5.87;;;;;;;15.40;75.17;102233.66;5053152;28;20179;-71
2021/10/07 08:36:45;;;;;;;12.50;5.80;;;;;;;15.40;75.50;102237.22;5018742;28;20178;-69
2021/10/07 08:39:11;;;;;;;11.60;6.00;;;;;;;15.74;75.35;102235.53;5035972;28;20172;-70
2021/10/07 08:41:38;;;;;;;6.77;5.13;;;;;;;15.90;75.03;102240.00;5034996;28;20218;-68
2021/10/07 08:44:03;;;;;;;12.73;5.20;;;;;;;16.19;74.85;102240.28;5053077;28;20233;-70
2021/10/07 08:46:29;;;;;;;10.40;4.90;;;;;;;16.50;74.71;102234.94;5052685;28;20195;-68
2021/10/07 08:48:54;;;;;;;8.17;5.00;;;;;;;16.66;73.71;102234.13;5053005;28;20176;-68
2021/10/07 08:51:20;;;;;;;9.53;5.00;;;;;;;16.88;73.64;102240.03;5035184;28;20187;-69
2021/10/07 08:53:45;;;;;;;8.93;4.27;;;;;;;17.02;72.62;102234.72;5052744;28;20179;-69
2021/10/07 08:56:10;;;;;;;6.23;3.63;;;;;;;17.27;72.69;102244.09;5035021;28;20582;-69
2021/10/07 08:58:36;;;;;;;9.43;3.70;;;;;;;17.34;70.85;102234.66;5035145;28;20163;-69
2021/10/07 09:01:03;;;;;;;5.80;2.63;;;;;;;17.48;69.43;102241.00;5035278;28;20231;-69
2021/10/07 09:03:29;;;;;;;6.00;2.63;;;;;;;17.64;67.77;102229.25;5034914;28;20565;-68
2021/10/07 09:06:14;;;;;;;7.53;2.80;;;;;;;17.79;68.43;102236.47;5052841;28;20206;-69
2021/10/07 09:08:47;;;;;;;3.00;2.33;;;;;;;18.09;68.66;102234.56;5020967;28;20652;-71
2021/10/07 09:11:28;;;;;;;10.50;4.00;;;;;;;18.21;68.09;102238.38;5037871;28;20559;-70
2021/10/07 09:14:09;;;;;;;6.97;3.90;;;;;;;18.41;67.62;102235.25;5037800;28;20575;-70
2021/10/07 09:16:46;;;;;;;6.10;2.90;;;;;;;18.23;64.73;102209.41;5036347;28;20617;-71
2021/10/07 09:19:19;;;;;;;5.23;2.10;;;;;;;18.34;63.90;102204.19;5055079;28;20163;-69
2021/10/07 09:21:46;;;;;;;4.33;1.37;;;;;;;18.52;63.27;102195.84;5034712;28;20616;-69
2021/10/07 09:24:48;;;;;;;2.90;1.20;;;;;;;18.61;62.77;102193.44;5034724;28;20172;-70
2021/10/07 09:27:24;;;;;;;3.77;1.30;;;;;;;18.61;62.76;102195.25;5051690;28;20273;-70
2021/10/07 09:30:03;;;;;;;5.30;1.33;;;;;;;18.53;64.12;102209.25;5034501;28;20536;-70
2021/10/07 09:32:34;;;;;;;5.30;1.77;;;;;;;18.37;64.79;102201.28;5034482;28;20191;-70
2021/10/07 09:35:02;;;;;;;3.63;1.57;;;;;;;18.71;64.67;102208.09;5034835;28;20247;-69
2021/10/07 09:37:31;;;;;;;4.37;1.83;;;;;;;18.53;65.23;102197.56;5034833;28;20164;-69
2021/10/07 09:40:18;;;;;;;5.33;1.80;;;;;;;18.74;64.16;102194.38;5056120;28;20228;-70
2021/10/07 09:42:55;;;;;;;5.47;1.60;;;;;;;18.98;64.25;102202.72;5055994;28;20244;-70
2021/10/07 09:45:25;;;;;;;4.87;1.90;;;;;;;19.04;64.13;102202.31;5038390;28;20167;-70
2021/10/07 09:47:56;;;;;;;3.27;2.00;;;;;;;19.23;63.70;102211.88;5056290;28;20298;-70
2021/10/07 09:50:26;;;;;;;6.23;2.33;;;;;;;19.01;64.39;102204.34;5038215;28;20160;-71
2021/10/07 09:53:05;;;;;;;4.80;2.40;;;;;;;19.48;63.19;102221.91;5055883;28;20167;-70
2021/10/07 09:55:39;;;;;;;3.37;2.40;;;;;;;19.71;62.93;102214.97;5038012;28;20171;-69
2021/10/07 09:58:10;;;;;;;6.30;2.73;;;;;;;19.85;62.52;102207.59;5038211;28;20177;-71
2021/10/07 10:00:39;;;;;;;6.00;2.10;;;;;;;19.28;62.92;102190.78;5038171;28;20250;-69
2021/10/07 10:03:06;;;;;;;6.00;2.37;;;;;;;19.89;61.79;102209.09;5055882;28;20668;-70
2021/10/07 10:05:34;;;;;;;5.13;2.70;;;;;;;20.33;61.46;102207.75;5037845;28;20175;-71
2021/10/07 10:08:00;;;;;;;5.90;3.17;;;;;;;20.15;61.46;102191.00;5055772;28;20251;-71
2021/10/07 10:10:25;;;;;;;7.17;2.87;;;;;;;20.38;59.82;102192.03;5037970;28;20712;-70
2021/10/07 10:12:51;;;;;;;6.00;2.87;;;;;;;20.91;58.36;102184.53;5055621;28;20222;-71
2021/10/07 10:15:17;;;;;;;7.90;3.27;;;;;;;20.74;59.76;102183.06;5037720;28;20186;-70
2021/10/07 10:17:43;;;;;;;6.73;3.30;;;;;;;20.48;60.10;102195.00;5055381;28;20537;-70
2021/10/07 10:20:13;;;;;;;13.37;3.60;;;;;;;20.87;58.69;102185.75;5055635;28;20176;-70
2021/10/07 10:22:40;;;;;;;7.07;3.67;;;;;;;20.78;58.76;102176.41;5037464;28;20210;-71
2021/10/07 10:25:06;;;;;;;6.63;3.60;;;;;;;21.21;58.33;102186.78;5037921;28;20179;-71
2021/10/07 10:27:45;;;;;;;7.97;3.03;;;;;;;21.12;58.11;102187.44;5020930;28;20195;-70
2021/10/07 10:30:19;;;;;;;7.10;3.13;;;;;;;21.18;57.13;102179.69;5037541;28;20178;-71
2021/10/07 10:32:45;;;;;;;5.17;2.90;;;;;;;21.16;57.40;102175.38;5037585;28;20244;-70
2021/10/07 10:35:33;;;;;;;4.23;2.30;;;;;;;22.30;54.97;102189.97;5037439;28;20557;-71
2021/10/07 10:37:59;;;;;;;7.10;2.53;;;;;;;21.30;56.26;102166.22;5038600;28;20478;-72
2021/10/07 10:40:24;;;;;;;5.93;2.47;;;;;;;21.67;55.45;102177.81;5055162;28;20163;-71
2021/10/07 10:43:18;;;;;;;5.10;2.50;;;;;;;22.06;56.40;102195.56;5037378;28;20183;-71
2021/10/07 10:46:08;;;;;;;5.70;2.10;;;;;;;22.86;53.00;102192.66;5055084;28;20660;-71
2021/10/07 10:48:45;;;;;;;3.80;2.00;;;;;;;24.65;50.46;102192.41;5055710;28;20160;-71
2021/10/07 10:51:12;;;;;;;6.43;2.13;;;;;;;26.71;45.49;102150.72;5055606;28;20198;-70
2021/10/07 10:54:04;;;;;;;3.90;1.70;;;;;;;27.39;43.21;102131.88;5037540;28;20659;-72
2021/10/07 10:56:38;;;;;;;6.83;2.00;;;;;;;26.92;44.88;102140.34;5037219;28;20267;-71
2021/10/07 10:59:17;;;;;;;4.53;2.10;;;;;;;25.75;46.57;102128.31;5054834;28;20625;-71
2021/10/07 11:01:42;;;;;;;4.67;1.93;;;;;;;24.77;47.75;102116.69;5054512;28;20229;-70
2021/10/07 11:04:07;;;;;;;4.00;1.67;;;;;;;26.12;46.55;102147.44;5036861;28;20172;-70
2021/10/07 11:07:11;;;;;;;2.83;1.50;;;;;;;26.86;44.35;102140.97;5055010;28;20207;-72
2021/10/07 11:09:59;;;;;;;2.67;1.50;;;;;;;26.19;44.22;102103.94;5054506;28;20195;-71
2021/10/07 11:12:25;;;;;;;3.07;1.43;;;;;;;24.20;48.28;102104.66;5037374;28;20207;-71
2021/10/07 11:14:51;;;;;;;2.63;1.43;;;;;;;26.22;47.00;102191.19;5036461;28;20576;-71
2021/10/07 11:17:18;;;;;;;2.90;1.20;;;;;;;27.53;42.96;102152.41;5037140;28;20167;-71
2021/10/07 11:19:45;;;;;;;5.53;1.57;;;;;;;26.42;44.48;102118.97;5037197;28;20241;-72
2021/10/07 11:22:11;;;;;;;4.60;1.67;;;;;;;25.31;47.26;102127.09;5056584;28;20377;-72
2021/10/07 11:24:49;;;;;;;2.50;1.17;;;;;;;24.52;49.04;102135.31;5054655;28;20203;-72
2021/10/07 11:27:14;;;;;;;4.13;1.30;;;;;;;24.06;49.71;102135.88;5036774;28;20703;-71
2021/10/07 11:29:40;;;;;;;3.63;1.13;;;;;;;23.73;49.94;102134.28;5036531;28;20211;-72